EIKY/KIR METAR and TAF weather

Enter ICAO airport designator
Station Type Date Time Source
EIKY METAR 2024/04/15 09:30 UTC NOAA

EIKY 150930Z 29011G21KT 230V340 9999 SCT023CB SCT030 08/03 Q1015


Station Type Date Time Source
EIKY Decoded METAR 2024/04/15 09:30 UTC NOAA

Station name not available
Apr 15, 2024 - 05:30 AM EDT / 2024.04.15 0930 UTC
Wind: from the WNW (290 degrees) at 13 MPH (11 KT) gusting to 24 MPH (21 KT) (direction variable):0
Visibility: greater than 7 mile(s):0
Sky conditions: partly cloudy
Weather: Cumulonimbus clouds observed
Temperature: 46 F (8 C)
Dew Point: 37 F (3 C)
Relative Humidity: 70%
Pressure (altimeter): 29.97 in. Hg (1015 hPa)
ob: EIKY 150930Z 29011G21KT 230V340 9999 SCT023CB SCT030 08/03 Q1015
cycle: 9

Station Type Date Time Source
EIKY TAF UTC NOAA

Error!

Example: see airport list